Time;durP1;ratioP1;P1;durP2;ratioP2;P2;SDS_P1;SDS_P2;PMS_P1;PMS_P2;Temp;Humidity;BMP_temperature;BMP_pressure;BME280_temperature;BME280_humidity;BME280_pressure;Samples;Min_cycle;Max_cycle;Signal;HPM_P1;HPM_P2
2023/07/04 00:01:04;;;;;;;3.15;1.70;;;;;;;12.17;83.62;100850.75;5091513;28;20036;-85
2023/07/04 00:03:33;;;;;;;5.25;2.00;;;;;;;12.08;84.15;100852.00;5074518;28;20058;-85
2023/07/04 00:05:58;;;;;;;5.03;2.00;;;;;;;12.10;84.66;100850.75;5092414;28;20111;-86
2023/07/04 00:08:25;;;;;;;5.00;1.73;;;;;;;12.14;84.29;100848.47;5090841;28;20040;-88
2023/07/04 00:10:52;;;;;;;3.83;1.63;;;;;;;12.18;83.80;100843.47;5095541;28;20035;-86
2023/07/04 00:13:18;;;;;;;5.43;1.90;;;;;;;12.07;84.31;100847.63;5102103;28;20107;-85
2023/07/04 00:15:50;;;;;;;3.63;1.90;;;;;;;12.00;84.98;100847.63;5098867;28;20024;-87
2023/07/04 00:18:20;;;;;;;4.05;1.90;;;;;;;11.92;85.00;100862.13;5093021;28;20032;-86
2023/07/04 00:20:45;;;;;;;2.55;1.70;;;;;;;11.99;85.33;100856.75;5095155;28;20445;-85
2023/07/04 00:23:11;;;;;;;4.60;1.70;;;;;;;12.17;84.58;100848.06;5110234;28;20102;-85
2023/07/04 00:25:36;;;;;;;6.43;2.00;;;;;;;12.01;85.07;100853.84;5095650;22;20063;-85
2023/07/04 00:28:05;;;;;;;5.05;1.80;;;;;;;11.95;85.26;100850.94;5009025;28;20026;-85
2023/07/04 00:30:31;;;;;;;4.75;1.90;;;;;;;12.04;85.40;100853.44;5009138;28;20354;-85
2023/07/04 00:32:57;;;;;;;4.72;2.00;;;;;;;12.25;84.75;100850.53;5007123;28;20044;-87
2023/07/04 00:35:22;;;;;;;4.25;1.92;;;;;;;12.24;83.76;100848.88;5008254;28;20017;-87
2023/07/04 00:37:47;;;;;;;3.50;1.95;;;;;;;12.24;84.56;100848.06;5004428;28;20028;-85
2023/07/04 00:40:13;;;;;;;2.60;1.90;;;;;;;12.26;83.92;100836.00;5006181;28;20051;-84
2023/07/04 00:42:41;;;;;;;5.13;1.90;;;;;;;12.13;84.57;100847.63;5005628;28;20058;-85
2023/07/04 00:45:19;;;;;;;4.57;2.15;;;;;;;12.15;84.39;100839.34;5006339;28;20033;-85
2023/07/04 00:47:53;;;;;;;4.80;1.70;;;;;;;12.17;84.31;100845.38;5004514;28;20114;-85
2023/07/04 00:50:23;;;;;;;3.28;1.77;;;;;;;12.23;83.74;100852.63;5007214;28;20397;-85
2023/07/04 00:52:53;;;;;;;3.35;1.70;;;;;;;12.18;83.48;100828.09;4990927;28;20038;-85
2023/07/04 00:55:18;;;;;;;4.22;1.83;;;;;;;12.24;83.93;100829.16;5017425;28;20017;-85
2023/07/04 00:57:46;;;;;;;2.35;1.60;;;;;;;12.31;84.18;100842.66;5027969;28;20037;-84
2023/07/04 01:00:31;;;;;;;3.97;1.90;;;;;;;12.32;84.09;100838.91;5017822;28;20113;-87
2023/07/04 01:03:18;;;;;;;3.45;1.85;;;;;;;12.26;84.61;100840.59;5009314;28;20033;-87
2023/07/04 01:06:06;;;;;;;5.30;1.88;;;;;;;12.35;84.19;100838.50;5009414;28;20034;-87
2023/07/04 01:08:42;;;;;;;5.15;2.08;;;;;;;12.31;83.99;100832.69;5005954;28;20029;-84
2023/07/04 01:11:15;;;;;;;4.55;1.85;;;;;;;12.33;83.59;100824.38;4989794;28;20026;-84
2023/07/04 01:13:43;;;;;;;3.30;1.80;;;;;;;12.38;83.16;100822.72;5007513;28;20060;-86
2023/07/04 01:16:11;;;;;;;3.55;1.90;;;;;;;12.35;83.57;100827.72;5000687;28;20026;-84
2023/07/04 01:18:40;;;;;;;4.07;2.00;;;;;;;12.35;83.69;100833.09;5007282;28;20021;-86
2023/07/04 01:21:06;;;;;;;4.25;1.98;;;;;;;12.26;84.16;100836.00;5009115;28;20086;-84
2023/07/04 01:23:52;;;;;;;3.92;2.00;;;;;;;12.25;84.00;100844.31;4990392;28;20026;-85
2023/07/04 01:26:39;;;;;;;3.55;1.90;;;;;;;12.22;84.66;100845.56;5005671;28;20440;-84
2023/07/04 01:29:07;;;;;;;4.22;1.88;;;;;;;12.36;83.72;100851.78;5007535;28;20034;-86
2023/07/04 01:31:32;;;;;;;4.97;2.00;;;;;;;12.28;84.13;100854.69;5005724;28;20022;-84
2023/07/04 01:33:58;;;;;;;4.45;2.17;;;;;;;12.38;82.96;100854.25;5005844;28;20018;-84
2023/07/04 01:36:26;;;;;;;4.47;1.90;;;;;;;12.34;82.58;100853.84;5012367;28;20034;-84
2023/07/04 01:38:55;;;;;;;3.47;1.88;;;;;;;12.28;82.76;100871.72;5021113;28;20068;-85
2023/07/04 01:41:24;;;;;;;6.97;2.00;;;;;;;12.28;83.44;100878.97;5011201;28;20022;-85
2023/07/04 01:43:56;;;;;;;6.45;1.90;;;;;;;12.24;83.39;100883.97;5006547;28;20042;-85
2023/07/04 01:46:21;;;;;;;5.78;1.90;;;;;;;12.24;83.41;100875.88;5009452;28;20037;-85
2023/07/04 01:48:47;;;;;;;4.50;1.75;;;;;;;12.22;83.75;100875.25;5016324;28;20067;-85
2023/07/04 01:51:12;;;;;;;5.93;2.28;;;;;;;12.21;84.52;100884.38;5005429;28;20046;-85
2023/07/04 01:53:38;;;;;;;5.80;2.05;;;;;;;12.13;85.27;100890.00;5009255;28;20041;-85
2023/07/04 01:56:03;;;;;;;4.70;2.20;;;;;;;12.13;85.96;100890.00;5010753;28;20098;-85
2023/07/04 01:58:29;;;;;;;3.25;1.90;;;;;;;12.15;86.52;100887.91;5008967;28;20056;-85
2023/07/04 02:00:55;;;;;;;5.22;2.47;;;;;;;12.12;87.33;100896.44;5008763;28;20381;-85
2023/07/04 02:03:20;;;;;;;4.85;2.10;;;;;;;12.12;87.65;100893.72;5010003;28;20022;-85
2023/07/04 02:05:46;;;;;;;6.88;2.55;;;;;;;12.07;88.12;100893.50;5010432;28;20453;-86
2023/07/04 02:08:11;;;;;;;4.70;2.17;;;;;;;12.10;89.01;100885.00;5006311;28;20425;-85
2023/07/04 02:10:37;;;;;;;6.30;2.28;;;;;;;12.08;88.75;100884.38;5007999;28;20436;-85
2023/07/04 02:13:04;;;;;;;6.18;2.25;;;;;;;12.08;89.04;100887.06;5008860;28;20022;-85
2023/07/04 02:15:31;;;;;;;4.35;2.28;;;;;;;12.12;88.92;100889.16;5010319;28;20040;-85
2023/07/04 02:17:56;;;;;;;5.57;2.38;;;;;;;12.14;88.79;100878.16;5007255;28;20129;-85
2023/07/04 02:20:22;;;;;;;6.25;2.22;;;;;;;12.11;88.45;100879.38;5008611;28;20098;-85
2023/07/04 02:22:47;;;;;;;8.35;2.50;;;;;;;12.02;88.83;100872.53;5010371;28;20034;-85
2023/07/04 02:25:13;;;;;;;7.22;2.30;;;;;;;12.12;88.46;100861.34;5005929;28;20033;-85
2023/07/04 02:27:39;;;;;;;5.95;2.40;;;;;;;12.01;89.09;100870.03;5082630;28;20040;-85
2023/07/04 02:30:05;;;;;;;7.53;2.60;;;;;;;11.99;88.85;100859.47;5090031;28;20113;-85
2023/07/04 02:32:30;;;;;;;7.00;2.47;;;;;;;12.00;89.46;100863.00;5091357;28;20031;-85
2023/07/04 02:34:56;;;;;;;4.93;2.47;;;;;;;11.96;89.23;100860.69;5090803;28;20032;-84
2023/07/04 02:37:21;;;;;;;8.73;2.60;;;;;;;12.16;88.44;100857.19;5091341;28;20028;-85
2023/07/04 02:39:48;;;;;;;5.07;2.58;;;;;;;12.09;88.14;100867.16;5092307;28;20031;-85
2023/07/04 02:42:13;;;;;;;5.57;2.55;;;;;;;12.10;89.35;100866.13;5091585;28;20028;-85
2023/07/04 02:44:39;;;;;;;5.38;2.58;;;;;;;12.19;88.70;100861.34;5092153;28;20035;-85
2023/07/04 02:47:04;;;;;;;9.35;3.60;;;;;;;12.33;88.05;100859.47;5087147;28;20035;-84
2023/07/04 02:49:30;;;;;;;7.47;3.03;;;;;;;12.20;88.23;100853.03;5092383;28;20043;-84
2023/07/04 02:51:55;;;;;;;9.25;3.03;;;;;;;12.13;88.80;100854.91;5088300;28;20105;-85
2023/07/04 02:54:21;;;;;;;7.68;3.10;;;;;;;12.13;89.40;100860.31;5090586;28;20183;-85
2023/07/04 02:56:46;;;;;;;8.77;3.47;;;;;;;12.19;88.77;100853.25;5088364;28;21315;-85
2023/07/04 02:59:12;;;;;;;8.75;3.15;;;;;;;12.26;89.00;100846.81;5091014;28;20046;-85
2023/07/04 03:01:37;;;;;;;5.75;3.20;;;;;;;12.32;88.30;100855.13;5088645;28;20028;-84
2023/07/04 03:04:03;;;;;;;6.22;2.95;;;;;;;12.35;88.38;100849.31;5089562;28;20028;-85
2023/07/04 03:06:28;;;;;;;8.00;3.15;;;;;;;12.36;88.38;100840.13;5092148;28;20032;-85
2023/07/04 03:08:56;;;;;;;9.35;3.33;;;;;;;12.36;88.14;100845.53;5092024;28;20035;-85
2023/07/04 03:11:21;;;;;;;7.13;2.80;;;;;;;12.44;87.88;100843.44;5089624;28;20020;-85
2023/07/04 03:13:47;;;;;;;8.50;3.10;;;;;;;12.49;87.41;100850.94;5088780;28;20107;-83
2023/07/04 03:16:13;;;;;;;7.13;2.80;;;;;;;12.49;87.01;100856.34;5089786;28;20111;-79
2023/07/04 03:18:41;;;;;;;7.88;3.03;;;;;;;12.39;87.48;100850.53;5088032;28;20494;-79
2023/07/04 03:21:06;;;;;;;7.45;3.30;;;;;;;12.40;86.79;100846.78;5091756;28;20032;-80
2023/07/04 03:23:32;;;;;;;8.55;3.28;;;;;;;12.42;87.04;100853.66;5088854;28;20077;-80
2023/07/04 03:25:57;;;;;;;8.98;3.13;;;;;;;12.44;87.04;100853.44;5073142;28;20481;-79
2023/07/04 03:28:26;;;;;;;10.48;3.75;;;;;;;12.45;87.15;100860.50;5002837;28;20057;-80
2023/07/04 03:30:51;;;;;;;5.78;2.72;;;;;;;12.46;86.76;100853.22;4993482;28;20030;-79
2023/07/04 03:33:16;;;;;;;7.10;2.90;;;;;;;12.45;86.65;100855.09;4986501;28;20370;-79
2023/07/04 03:35:42;;;;;;;4.10;2.90;;;;;;;12.36;86.63;100861.75;5001270;28;20086;-79
2023/07/04 03:38:10;;;;;;;8.90;3.20;;;;;;;12.31;86.97;100859.66;4993775;28;20025;-79
2023/07/04 03:40:35;;;;;;;4.88;2.78;;;;;;;12.32;86.79;100857.81;4992430;28;20168;-79
2023/07/04 03:43:01;;;;;;;5.22;2.75;;;;;;;12.28;86.50;100862.78;4993223;28;20183;-79
2023/07/04 03:45:26;;;;;;;4.10;2.50;;;;;;;12.28;85.63;100860.94;4991747;28;20514;-80
2023/07/04 03:47:51;;;;;;;6.95;2.80;;;;;;;12.30;85.49;100871.50;5001546;28;20033;-79
2023/07/04 03:50:17;;;;;;;4.70;2.75;;;;;;;12.25;85.72;100871.31;4975949;28;20099;-78
2023/07/04 03:52:42;;;;;;;4.97;2.47;;;;;;;12.23;85.88;100865.28;4989280;28;20033;-79
2023/07/04 03:55:08;;;;;;;4.60;2.40;;;;;;;12.27;85.89;100870.06;5005130;28;20013;-79
2023/07/04 03:57:33;;;;;;;5.35;2.85;;;;;;;12.31;85.09;100877.75;5008493;28;20372;-80
2023/07/04 03:59:59;;;;;;;6.05;2.80;;;;;;;12.32;85.44;100871.31;4991472;28;20152;-79
2023/07/04 04:02:24;;;;;;;3.83;2.63;;;;;;;12.37;84.78;100876.91;4995900;28;20038;-80
2023/07/04 04:04:50;;;;;;;6.43;2.75;;;;;;;12.33;84.09;100873.78;4992851;28;20038;-80
2023/07/04 04:07:16;;;;;;;4.47;2.20;;;;;;;12.35;84.39;100882.53;5002749;28;20449;-80
2023/07/04 04:09:42;;;;;;;3.78;2.20;;;;;;;12.30;84.34;100887.69;4990591;28;20038;-80
2023/07/04 04:12:08;;;;;;;4.47;2.40;;;;;;;12.27;84.13;100880.84;4990853;28;20034;-80
2023/07/04 04:14:34;;;;;;;6.07;2.40;;;;;;;12.24;84.41;100886.66;4986030;28;20031;-80
2023/07/04 04:16:59;;;;;;;5.97;2.42;;;;;;;12.32;83.91;100887.50;4987970;28;20037;-80
2023/07/04 04:19:25;;;;;;;5.35;2.20;;;;;;;12.31;83.67;100883.97;4971423;28;20031;-80
2023/07/04 04:21:52;;;;;;;5.05;2.47;;;;;;;12.40;83.76;100889.97;4986835;28;20545;-80
2023/07/04 04:24:17;;;;;;;4.75;2.35;;;;;;;12.52;83.24;100893.75;4990032;28;20437;-80
2023/07/04 04:26:43;;;;;;;5.43;2.35;;;;;;;12.44;82.51;100888.53;4997358;28;20042;-80
2023/07/04 04:29:11;;;;;;;5.40;2.58;;;;;;;12.47;82.97;100895.38;5006503;28;20089;-80
2023/07/04 04:31:38;;;;;;;5.45;2.50;;;;;;;12.52;82.17;100895.59;5007003;28;20404;-80
2023/07/04 04:34:04;;;;;;;4.00;2.05;;;;;;;12.64;82.41;100895.78;5008654;28;20121;-79
2023/07/04 04:36:30;;;;;;;7.03;2.30;;;;;;;12.74;81.70;100896.19;5008321;28;20033;-80
2023/07/04 04:38:55;;;;;;;4.50;2.20;;;;;;;12.81;81.66;100901.56;5007614;28;20042;-80
2023/07/04 04:41:21;;;;;;;10.13;2.45;;;;;;;12.85;81.52;100898.25;5007438;28;20026;-80
2023/07/04 04:43:49;;;;;;;5.13;2.28;;;;;;;12.99;81.27;100909.03;5006313;28;20053;-79
2023/07/04 04:46:15;;;;;;;5.63;2.55;;;;;;;12.97;81.30;100920.03;5007028;28;20030;-80
2023/07/04 04:48:41;;;;;;;9.02;2.70;;;;;;;12.83;81.88;100905.75;5007293;28;20449;-80
2023/07/04 04:51:07;;;;;;;6.50;2.50;;;;;;;12.84;82.36;100915.50;5005956;28;20030;-81
2023/07/04 04:53:35;;;;;;;7.03;2.70;;;;;;;12.92;82.31;100902.78;5008964;28;20037;-79
2023/07/04 04:56:01;;;;;;;4.78;2.80;;;;;;;12.84;82.65;100907.41;5047417;22;20044;-77
2023/07/04 04:58:32;;;;;;;5.60;2.63;;;;;;;12.92;82.48;100913.59;5044390;28;20147;-77
2023/07/04 05:01:09;;;;;;;7.15;2.70;;;;;;;13.01;82.64;100909.66;5043542;28;20025;-78
2023/07/04 05:03:35;;;;;;;8.02;2.70;;;;;;;13.17;82.56;100916.44;5046173;28;20025;-77
2023/07/04 05:06:02;;;;;;;5.30;2.95;;;;;;;14.10;79.20;100917.06;5041131;28;20036;-78
2023/07/04 05:08:28;;;;;;;4.30;2.80;;;;;;;15.13;74.43;100927.66;5046622;28;20028;-77
2023/07/04 05:11:05;;;;;;;6.13;3.15;;;;;;;15.44;72.72;100923.94;5047023;28;20085;-78
2023/07/04 05:13:34;;;;;;;5.53;2.92;;;;;;;16.07;71.49;100931.91;5044936;28;20485;-78
2023/07/04 05:16:06;;;;;;;8.85;2.95;;;;;;;17.00;67.59;100931.44;5043540;28;20052;-78
2023/07/04 05:18:33;;;;;;;8.18;3.33;;;;;;;16.59;67.87;100925.03;5045365;28;20032;-77
2023/07/04 05:21:25;;;;;;;10.60;3.47;;;;;;;15.97;70.37;100937.91;5044575;28;20497;-77
2023/07/04 05:23:52;;;;;;;10.25;3.50;;;;;;;15.43;72.13;100933.16;5043066;28;20099;-77
2023/07/04 05:26:22;;;;;;;11.02;3.63;;;;;;;15.29;73.58;100934.34;5046789;28;20061;-77
2023/07/04 05:28:47;;;;;;;9.60;3.90;;;;;;;15.08;74.45;100925.63;5045373;28;20036;-78
2023/07/04 05:31:16;;;;;;;8.98;3.40;;;;;;;15.40;73.78;100930.06;5045617;28;20468;-78
2023/07/04 05:33:46;;;;;;;11.82;3.65;;;;;;;15.49;73.02;100922.44;5047788;28;20032;-78
2023/07/04 05:36:23;;;;;;;9.82;3.65;;;;;;;16.33;70.18;100924.41;5030874;28;20025;-78
2023/07/04 05:38:49;;;;;;;6.68;3.40;;;;;;;17.04;67.90;100935.34;5034093;28;20032;-77
2023/07/04 05:41:16;;;;;;;9.82;3.97;;;;;;;17.74;65.68;100938.09;5036766;28;20022;-77
2023/07/04 05:43:42;;;;;;;14.10;4.28;;;;;;;18.00;63.74;100936.69;5048812;28;20032;-77
2023/07/04 05:46:08;;;;;;;8.13;3.50;;;;;;;18.58;62.79;100935.78;5046656;28;20025;-78
2023/07/04 05:48:34;;;;;;;10.82;4.00;;;;;;;18.63;61.97;100931.22;5047639;28;20029;-79
2023/07/04 05:51:01;;;;;;;10.40;4.05;;;;;;;18.99;61.07;100933.66;5045235;28;20040;-82
2023/07/04 05:53:28;;;;;;;8.85;4.10;;;;;;;19.51;59.63;100937.88;5043098;28;20024;-83
2023/07/04 05:56:19;;;;;;;10.95;4.28;;;;;;;19.83;58.12;100950.78;5045678;28;20053;-83
2023/07/04 05:58:46;;;;;;;12.15;4.07;;;;;;;19.82;57.83;100945.59;5039638;28;20025;-87
2023/07/04 06:01:18;;;;;;;12.23;4.35;;;;;;;19.19;60.24;100938.59;5044998;28;20036;-83
2023/07/04 06:03:46;;;;;;;10.68;4.18;;;;;;;18.85;61.17;100927.72;5040855;28;20045;-79
2023/07/04 06:06:24;;;;;;;12.45;4.35;;;;;;;18.96;60.47;100942.38;5044283;28;20123;-79
2023/07/04 06:08:50;;;;;;;11.20;4.40;;;;;;;18.54;61.81;100940.06;5044992;28;20029;-78
2023/07/04 06:11:16;;;;;;;14.50;4.05;;;;;;;18.21;62.79;100931.63;5060363;28;20043;-79
2023/07/04 06:13:42;;;;;;;10.70;4.53;;;;;;;17.77;64.14;100940.34;5062051;28;20029;-80
2023/07/04 06:16:07;;;;;;;10.32;4.55;;;;;;;17.10;67.08;100939.81;5054545;28;20025;-79
2023/07/04 06:18:33;;;;;;;10.98;4.60;;;;;;;16.79;67.58;100941.00;5048832;28;20032;-80
2023/07/04 06:21:19;;;;;;;11.63;4.50;;;;;;;16.51;68.46;100951.50;5043188;28;20093;-79
2023/07/04 06:23:45;;;;;;;13.45;4.40;;;;;;;16.56;68.73;100958.13;5039699;28;20031;-79
2023/07/04 06:26:11;;;;;;;14.13;4.63;;;;;;;16.74;68.48;100955.31;5045315;28;20052;-81
2023/07/04 06:28:37;;;;;;;13.45;4.60;;;;;;;17.31;67.23;100959.28;5044416;28;20029;-80
2023/07/04 06:31:03;;;;;;;15.15;4.72;;;;;;;17.86;65.45;100959.84;5046660;28;20025;-80
2023/07/04 06:33:32;;;;;;;14.27;4.95;;;;;;;17.85;64.93;100966.34;5049417;27;20029;-80
2023/07/04 06:35:57;;;;;;;14.23;4.45;;;;;;;18.33;64.17;100967.81;5047478;28;20045;-80
2023/07/04 06:38:23;;;;;;;17.85;4.85;;;;;;;19.10;60.33;100970.09;5049867;28;20388;-80
2023/07/04 06:40:57;;;;;;;13.73;4.57;;;;;;;19.23;61.76;100977.94;5050180;28;20361;-81
2023/07/04 06:43:24;;;;;;;12.52;4.07;;;;;;;19.89;57.94;100970.00;5043103;28;20033;-81
2023/07/04 06:45:50;;;;;;;14.95;4.85;;;;;;;19.40;60.02;100982.53;5049930;28;20025;-81
2023/07/04 06:48:15;;;;;;;13.98;4.78;;;;;;;18.97;61.69;100986.84;5050018;28;20491;-81
2023/07/04 06:50:42;;;;;;;18.50;5.10;;;;;;;18.67;61.64;100994.25;5047976;28;20089;-80
2023/07/04 06:53:07;;;;;;;18.88;5.13;;;;;;;18.98;61.82;100993.94;5049385;28;20608;-80
2023/07/04 06:55:34;;;;;;;11.77;4.32;;;;;;;18.92;62.00;101002.00;5050389;28;20183;-81
2023/07/04 06:57:59;;;;;;;14.55;4.53;;;;;;;20.30;57.69;100987.66;5032334;28;20369;-81
2023/07/04 07:00:25;;;;;;;14.35;4.80;;;;;;;20.24;58.13;100987.84;5050496;28;20030;-81
2023/07/04 07:02:50;;;;;;;14.10;4.60;;;;;;;20.38;57.28;101004.69;5050119;28;20480;-81
2023/07/04 07:05:17;;;;;;;11.88;4.55;;;;;;;20.51;56.86;100993.28;5050030;28;20081;-81
2023/07/04 07:07:42;;;;;;;13.50;4.95;;;;;;;19.28;59.29;100998.19;5052504;28;20025;-80
2023/07/04 07:10:08;;;;;;;14.45;5.00;;;;;;;18.28;62.95;101011.31;5077704;22;20116;-81
2023/07/04 07:12:34;;;;;;;15.73;5.38;;;;;;;18.31;64.21;101010.00;5112071;28;20111;-81
2023/07/04 07:14:59;;;;;;;13.25;4.50;;;;;;;19.89;59.27;101008.25;5112659;28;20458;-81
2023/07/04 07:17:25;;;;;;;13.32;4.93;;;;;;;19.80;59.00;101000.47;5113641;28;20023;-80
2023/07/04 07:19:50;;;;;;;10.20;4.30;;;;;;;19.96;57.71;101014.34;5104891;28;20027;-81
2023/07/04 07:22:16;;;;;;;14.15;4.70;;;;;;;19.63;59.81;101002.44;5113169;28;20027;-81
2023/07/04 07:24:43;;;;;;;11.95;4.65;;;;;;;19.42;59.49;100999.47;5112923;28;20027;-81
2023/07/04 07:27:08;;;;;;;12.95;4.82;;;;;;;18.97;60.45;100989.56;5112304;28;20047;-81
2023/07/04 07:29:34;;;;;;;14.20;4.88;;;;;;;19.26;58.51;101000.31;5093834;28;20027;-81
2023/07/04 07:32:05;;;;;;;16.60;5.00;;;;;;;19.41;58.43;101000.56;5110793;28;20471;-81
2023/07/04 07:34:31;;;;;;;14.68;5.22;;;;;;;20.06;56.87;101003.53;5109310;28;20467;-81
2023/07/04 07:36:56;;;;;;;12.93;4.55;;;;;;;20.39;56.28;101014.50;5112190;28;20109;-81
2023/07/04 07:39:22;;;;;;;13.70;4.43;;;;;;;20.24;55.42;101004.25;5112817;28;20112;-81
2023/07/04 07:41:48;;;;;;;18.33;5.43;;;;;;;20.18;56.97;101016.22;5113093;28;20047;-82
2023/07/04 07:44:16;;;;;;;15.30;5.60;;;;;;;20.95;54.39;101021.56;5110179;28;20026;-82
2023/07/04 07:46:42;;;;;;;16.90;4.93;;;;;;;21.24;54.12;101005.59;5114547;28;20566;-81
2023/07/04 07:51:33;;;;;;;16.05;5.00;;;;;;;22.36;49.74;101014.50;5117737;22;20051;-81
2023/07/04 07:53:59;;;;;;;17.45;5.20;;;;;;;20.77;53.13;101009.13;5112445;28;20048;-80
2023/07/04 07:56:25;;;;;;;12.50;4.80;;;;;;;19.75;56.55;101000.44;5111941;28;20024;-80
2023/07/04 07:58:51;;;;;;;14.98;4.82;;;;;;;19.68;55.72;101008.00;5110993;28;20032;-81
2023/07/04 08:01:21;;;;;;;17.67;5.10;;;;;;;18.87;59.61;101010.13;5112722;28;20091;-80
2023/07/04 08:03:47;;;;;;;13.38;4.18;;;;;;;19.52;56.70;100987.84;5112331;28;20028;-81
2023/07/04 08:06:20;;;;;;;11.63;4.38;;;;;;;19.78;56.63;100985.44;5111522;28;20455;-82
2023/07/04 08:08:46;;;;;;;15.10;4.47;;;;;;;20.14;55.00;100988.59;5106492;28;20110;-82
2023/07/04 08:11:13;;;;;;;13.75;4.25;;;;;;;20.55;52.01;100988.13;5111877;28;20059;-81
2023/07/04 08:13:39;;;;;;;11.32;4.22;;;;;;;20.90;51.62;100984.03;5111359;28;20027;-80
2023/07/04 08:16:04;;;;;;;15.38;4.30;;;;;;;19.95;53.89;100979.91;5113784;28;20019;-80
2023/07/04 08:18:29;;;;;;;13.20;4.25;;;;;;;19.51;55.31;100981.56;5112620;28;20055;-81
2023/07/04 08:20:56;;;;;;;13.73;3.75;;;;;;;20.70;53.28;100984.69;5111698;28;20019;-82
2023/07/04 08:23:21;;;;;;;9.38;3.40;;;;;;;20.86;51.35;100988.38;5112496;28;20035;-82
2023/07/04 08:25:47;;;;;;;11.35;3.97;;;;;;;21.28;50.78;100989.44;5107105;28;20052;-81
2023/07/04 08:28:15;;;;;;;11.80;3.47;;;;;;;20.97;51.77;100990.13;5113768;28;20030;-82
2023/07/04 08:30:41;;;;;;;14.60;4.28;;;;;;;20.62;51.51;100999.69;5128168;28;20016;-80
2023/07/04 08:33:06;;;;;;;11.10;3.30;;;;;;;19.92;53.04;100989.44;5122049;28;20114;-79
2023/07/04 08:35:32;;;;;;;10.77;3.17;;;;;;;19.59;52.85;100993.94;5113156;28;20024;-79
2023/07/04 08:37:57;;;;;;;11.23;3.35;;;;;;;19.75;53.27;100991.41;5111334;28;20040;-79
2023/07/04 08:40:23;;;;;;;8.75;2.80;;;;;;;19.48;52.43;100995.72;5110721;28;20073;-79
2023/07/04 08:42:48;;;;;;;10.45;3.08;;;;;;;19.89;52.25;100986.41;5109956;28;20039;-79
2023/07/04 08:45:20;;;;;;;9.52;2.97;;;;;;;19.30;52.28;100994.13;5111435;28;20019;-79
2023/07/04 08:47:46;;;;;;;7.80;2.90;;;;;;;19.31;53.07;100994.94;5076220;28;20024;-79
2023/07/04 08:50:15;;;;;;;8.02;2.88;;;;;;;19.52;51.05;100998.75;5093840;28;20055;-78
2023/07/04 08:52:48;;;;;;;12.43;3.45;;;;;;;19.23;52.00;101002.50;5113158;28;20032;-80
2023/07/04 08:55:14;;;;;;;13.25;2.80;;;;;;;18.91;50.65;101005.81;5091210;28;20024;-80
2023/07/04 08:57:41;;;;;;;9.38;2.90;;;;;;;18.36;52.68;101001.06;5075150;28;20040;-79
2023/07/04 09:00:08;;;;;;;9.90;2.90;;;;;;;18.14;53.09;101002.63;5110822;28;20351;-78
2023/07/04 09:02:45;;;;;;;7.35;2.65;;;;;;;18.49;53.17;100984.44;5110978;28;20102;-80
2023/07/04 09:05:25;;;;;;;9.77;2.72;;;;;;;18.17;53.99;101013.03;5092274;28;20395;-79
2023/07/04 09:08:03;;;;;;;6.75;2.47;;;;;;;17.78;53.24;101020.97;5109970;28;20487;-78
2023/07/04 09:10:38;;;;;;;5.88;2.60;;;;;;;18.09;51.38;101013.41;5076859;28;20127;-79
2023/07/04 09:13:06;;;;;;;8.88;2.75;;;;;;;18.27;51.38;101033.34;5083606;28;20035;-79
2023/07/04 09:15:34;;;;;;;12.13;3.30;;;;;;;18.75;49.96;101026.59;5109490;28;20015;-79
2023/07/04 09:18:09;;;;;;;7.68;2.90;;;;;;;18.38;51.53;101032.50;5092522;28;20032;-79
2023/07/04 09:20:43;;;;;;;10.38;3.22;;;;;;;18.49;51.32;101047.13;5110173;28;20068;-79
2023/07/04 09:23:22;;;;;;;10.20;3.13;;;;;;;18.75;50.90;101047.56;5092428;28;20039;-79
2023/07/04 09:25:47;;;;;;;12.02;3.13;;;;;;;19.27;51.62;101040.19;5092401;28;20035;-79
2023/07/04 09:28:12;;;;;;;10.57;3.30;;;;;;;19.66;50.89;101040.19;5090944;28;20379;-79
2023/07/04 09:30:38;;;;;;;10.25;3.22;;;;;;;19.09;52.78;101050.31;5091656;28;20030;-79
2023/07/04 09:33:04;;;;;;;7.93;3.05;;;;;;;19.89;50.70;101047.31;5110675;28;20481;-78
2023/07/04 09:35:30;;;;;;;11.43;3.20;;;;;;;19.35;50.39;101039.78;5110740;28;20698;-79
2023/07/04 09:37:57;;;;;;;8.35;3.22;;;;;;;19.39;51.05;101043.66;5093604;28;20036;-79
2023/07/04 09:40:54;;;;;;;9.18;3.70;;;;;;;19.30;51.34;101056.06;5096541;28;20031;-79
2023/07/04 09:43:30;;;;;;;13.68;3.72;;;;;;;19.81;49.43;101055.94;5074385;28;20051;-78
2023/07/04 09:46:37;;;;;;;8.80;3.20;;;;;;;20.69;47.60;101052.25;5111129;28;20051;-78
2023/07/04 09:49:25;;;;;;;10.07;3.55;;;;;;;20.44;47.16;101056.41;5095905;28;20051;-79
2023/07/04 09:52:09;;;;;;;6.97;2.78;;;;;;;20.54;45.39;101063.03;5112230;28;20040;-78
2023/07/04 09:54:36;;;;;;;8.60;3.17;;;;;;;21.15;45.48;101067.41;5104588;28;20410;-79
2023/07/04 09:57:34;;;;;;;6.15;2.75;;;;;;;21.03;44.62;101068.41;5109038;28;20034;-78
2023/07/04 10:00:22;;;;;;;10.32;3.58;;;;;;;20.91;44.74;101073.25;5061412;28;20050;-79
2023/07/04 10:02:52;;;;;;;11.18;3.38;;;;;;;20.71;45.77;101068.41;5105500;28;20419;-78
2023/07/04 10:05:30;;;;;;;9.43;3.40;;;;;;;20.32;45.86;101061.19;5090756;28;20043;-78
2023/07/04 10:08:11;;;;;;;6.65;3.53;;;;;;;20.82;45.17;101072.09;5114084;28;20068;-78
2023/07/04 10:10:50;;;;;;;10.80;3.90;;;;;;;20.89;45.71;101075.41;5078041;28;20020;-79
2023/07/04 10:13:16;;;;;;;7.65;3.30;;;;;;;20.38;45.92;101075.75;5111766;28;20024;-79
2023/07/04 10:15:46;;;;;;;9.32;2.95;;;;;;;20.47;44.47;101067.91;5084913;28;20434;-78
2023/07/04 10:18:32;;;;;;;9.18;3.00;;;;;;;21.12;44.78;101067.94;5110798;28;20066;-79
2023/07/04 10:20:59;;;;;;;10.30;3.22;;;;;;;21.58;44.36;101065.47;5113059;28;20036;-78
2023/07/04 10:23:28;;;;;;;8.93;3.20;;;;;;;21.80;43.34;101061.78;5113482;27;20074;-78
2023/07/04 10:25:55;;;;;;;5.95;3.08;;;;;;;21.92;43.03;101054.13;5095634;28;20080;-78
2023/07/04 10:28:24;;;;;;;9.85;3.22;;;;;;;22.13;42.09;101054.22;5077635;28;20027;-79
2023/07/04 10:30:55;;;;;;;7.72;2.80;;;;;;;21.89;42.68;101054.66;5078170;28;20518;-79
2023/07/04 10:33:33;;;;;;;10.98;2.80;;;;;;;22.20;41.67;101063.03;5078181;28;20108;-79
2023/07/04 10:36:00;;;;;;;6.03;2.75;;;;;;;23.14;39.28;101051.00;5106304;28;20032;-79
2023/07/04 10:38:40;;;;;;;12.38;3.30;;;;;;;22.86;40.04;101061.47;5095323;28;20114;-79
2023/07/04 10:41:43;;;;;;;10.40;3.15;;;;;;;22.76;40.43;101057.91;5081419;28;20420;-78
2023/07/04 10:44:16;;;;;;;7.00;2.60;;;;;;;22.98;40.23;101065.84;5107909;28;20409;-79
2023/07/04 10:46:50;;;;;;;8.10;2.75;;;;;;;23.51;40.03;101056.44;5095381;28;20051;-78
2023/07/04 10:49:18;;;;;;;5.10;2.67;;;;;;;24.21;37.11;101055.59;5076357;28;20024;-77
2023/07/04 10:51:43;;;;;;;8.80;2.92;;;;;;;23.80;37.19;101061.28;5075649;28;20516;-78
2023/07/04 10:54:09;;;;;;;7.63;2.78;;;;;;;23.47;38.89;101062.47;5113192;28;20315;-77
2023/07/04 10:56:34;;;;;;;8.95;2.75;;;;;;;23.91;37.25;101058.22;5081406;28;20073;-80
2023/07/04 10:59:06;;;;;;;9.05;2.67;;;;;;;24.26;36.11;101066.56;5093533;28;20379;-78
2023/07/04 11:01:35;;;;;;;6.95;2.58;;;;;;;24.12;35.94;101071.06;5078691;28;20027;-79
2023/07/04 11:04:12;;;;;;;6.03;2.25;;;;;;;23.47;34.35;101076.22;5090917;28;20554;-77
2023/07/04 11:06:52;;;;;;;8.05;2.70;;;;;;;22.81;35.45;101072.44;5092158;28;20106;-77
2023/07/04 11:09:18;;;;;;;6.60;2.28;;;;;;;22.49;36.94;101079.00;5095847;28;20027;-78
2023/07/04 11:11:47;;;;;;;6.05;2.35;;;;;;;22.20;37.86;101082.22;5112171;28;20105;-78
2023/07/04 11:14:15;;;;;;;7.18;2.33;;;;;;;23.31;37.25;101077.34;5076920;28;20019;-78
2023/07/04 11:16:40;;;;;;;8.32;2.60;;;;;;;23.27;36.61;101066.13;5093947;28;20042;-78
2023/07/04 11:19:16;;;;;;;9.75;2.88;;;;;;;23.48;36.65;101063.31;5093403;28;20023;-77
2023/07/04 11:22:03;;;;;;;;;;;;;;;24.30;34.71;101066.81;5092393;28;20084;-77
2023/07/04 11:24:43;;;;;;;10.13;2.60;;;;;;;23.50;35.66;101068.53;5116919;28;19927;-77
2023/07/04 11:27:16;;;;;;;8.73;2.70;;;;;;;23.07;37.77;101079.84;5087858;28;20145;-78
2023/07/04 11:30:02;;;;;;;7.10;2.60;;;;;;;24.54;34.60;101072.44;5117436;28;20024;-78
2023/07/04 11:32:37;;;;;;;7.75;2.20;;;;;;;24.13;32.51;101076.28;5080535;28;20122;-78